Time;durP1;ratioP1;P1;durP2;ratioP2;P2;SDS_P1;SDS_P2;PMS_P1;PMS_P2;Temp;Humidity;BMP_temperature;BMP_pressure;BME280_temperature;BME280_humidity;BME280_pressure;Samples;Min_cycle;Max_cycle;Signal;HPM_P1;HPM_P2
2021/03/10 00:01:57;;;;;;;26.07;22.00;;;;;;;5.92;48.85;95527.22;6883266;28;20647;-73
2021/03/10 00:05:17;;;;;;;26.47;20.97;;;;;;;5.87;48.59;95521.41;6907890;28;20378;-73
2021/03/10 00:08:37;;;;;;;27.97;19.67;;;;;;;5.86;48.77;95517.06;6901610;28;20216;-73
2021/03/10 00:11:58;;;;;;;22.00;19.13;;;;;;;5.86;48.45;95513.56;6892905;28;20931;-73
2021/03/10 00:15:18;;;;;;;24.53;19.73;;;;;;;5.84;48.26;95515.44;6901162;28;20217;-73
2021/03/10 00:18:39;;;;;;;25.90;19.20;;;;;;;5.85;47.91;95525.91;6896105;28;20696;-74
2021/03/10 00:21:59;;;;;;;23.40;19.60;;;;;;;5.88;48.10;95530.16;6897200;28;20258;-73
2021/03/10 00:25:19;;;;;;;26.37;19.47;;;;;;;5.85;47.60;95525.91;6902028;28;20239;-73
2021/03/10 00:28:40;;;;;;;24.93;20.17;;;;;;;5.76;47.95;95528.28;6882778;28;20464;-73
2021/03/10 00:32:00;;;;;;;27.20;21.73;;;;;;;5.70;48.46;95537.44;6915760;28;20743;-73
2021/03/10 00:35:21;;;;;;;27.13;21.70;;;;;;;5.64;48.66;95532.56;6884838;28;20302;-73
2021/03/10 00:38:41;;;;;;;27.13;20.70;;;;;;;5.68;49.23;95534.09;6898980;28;20599;-74
2021/03/10 00:42:02;;;;;;;25.83;19.60;;;;;;;5.62;49.06;95542.38;6899341;28;20233;-73
2021/03/10 00:45:22;;;;;;;25.67;19.23;;;;;;;5.61;48.92;95545.94;6914032;28;20305;-74
2021/03/10 00:48:42;;;;;;;25.40;21.80;;;;;;;5.63;49.17;95551.97;6908786;28;20207;-74
2021/03/10 00:52:03;;;;;;;26.27;21.97;;;;;;;5.57;49.33;95555.00;6878898;28;20286;-72
2021/03/10 00:55:23;;;;;;;27.57;21.37;;;;;;;5.48;49.47;95555.59;6900256;28;20708;-73
2021/03/10 00:58:44;;;;;;;28.30;21.87;;;;;;;5.45;49.71;95546.09;6897962;28;20220;-73
2021/03/10 01:02:04;;;;;;;26.63;21.20;;;;;;;5.45;50.03;95553.13;6904517;28;20232;-72
2021/03/10 01:05:24;;;;;;;27.00;22.10;;;;;;;5.37;50.15;95548.38;6895422;28;20274;-73
2021/03/10 01:08:45;;;;;;;23.97;20.67;;;;;;;5.31;49.79;95546.13;6910729;28;20316;-73
2021/03/10 01:12:06;;;;;;;23.03;20.07;;;;;;;5.20;50.24;95548.59;6874232;28;20708;-73
2021/03/10 01:15:26;;;;;;;23.10;20.43;;;;;;;5.18;50.37;95532.88;6888400;28;20236;-73
2021/03/10 01:18:46;;;;;;;25.97;21.73;;;;;;;5.07;50.12;95539.78;6912592;28;20709;-74
2021/03/10 01:22:07;;;;;;;26.43;21.30;;;;;;;4.98;50.92;95535.09;6913531;28;20240;-74
2021/03/10 01:25:30;;;;;;;25.30;21.70;;;;;;;4.93;50.50;95527.47;6908249;28;20328;-73
2021/03/10 01:28:50;;;;;;;27.63;22.10;;;;;;;4.87;51.09;95527.03;6905926;28;20945;-73
2021/03/10 01:32:11;;;;;;;26.07;22.63;;;;;;;4.81;51.32;95517.72;6895063;28;20768;-73
2021/03/10 01:35:31;;;;;;;26.10;21.33;;;;;;;4.69;51.23;95526.34;6903972;28;20220;-74
2021/03/10 01:38:51;;;;;;;25.77;20.67;;;;;;;4.58;51.54;95534.91;6911231;28;20378;-73
2021/03/10 01:42:12;;;;;;;25.73;21.23;;;;;;;4.53;51.46;95541.38;6889679;28;20790;-73
2021/03/10 01:45:36;;;;;;;26.37;21.07;;;;;;;4.49;51.85;95534.63;6901046;28;20682;-73
2021/03/10 01:48:56;;;;;;;25.10;20.37;;;;;;;4.49;51.34;95531.97;6904983;28;20256;-73
2021/03/10 01:52:17;;;;;;;24.53;19.23;;;;;;;4.51;51.96;95533.59;6898491;28;20220;-73
2021/03/10 01:55:37;;;;;;;25.43;19.37;;;;;;;4.44;51.17;95540.16;6864619;28;20611;-72
2021/03/10 01:58:58;;;;;;;25.53;20.00;;;;;;;4.43;51.35;95535.81;6897821;28;20307;-73
2021/03/10 02:02:18;;;;;;;24.87;18.67;;;;;;;4.43;51.41;95532.34;6903514;28;20234;-73
2021/03/10 02:05:39;;;;;;;21.67;18.37;;;;;;;4.41;51.58;95531.63;6903922;28;20207;-73
2021/03/10 02:09:06;;;;;;;19.87;17.67;;;;;;;4.38;51.58;95539.66;6899602;28;20748;-73
2021/03/10 02:12:48;;;;;;;23.37;18.03;;;;;;;4.37;51.80;95530.13;6906686;28;20692;-74
2021/03/10 02:16:34;;;;;;;22.33;17.67;;;;;;;4.37;51.64;95546.72;6900460;28;20212;-73
2021/03/10 02:20:05;;;;;;;20.93;18.30;;;;;;;4.36;51.83;95538.94;6904430;28;20219;-73
2021/03/10 02:23:57;;;;;;;24.13;17.87;;;;;;;4.35;52.14;95526.72;6914988;28;20246;-73
2021/03/10 02:27:46;;;;;;;22.77;17.47;;;;;;;4.37;52.10;95530.97;6881519;28;20224;-74
2021/03/10 02:31:08;;;;;;;20.07;17.80;;;;;;;4.41;52.14;95524.56;6902811;28;20255;-73
2021/03/10 02:34:28;;;;;;;22.80;17.77;;;;;;;4.43;51.89;95530.56;6914115;28;21269;-73
2021/03/10 02:37:51;;;;;;;24.07;18.47;;;;;;;4.47;51.97;95533.88;6906902;28;20208;-74
2021/03/10 02:41:12;;;;;;;25.30;19.67;;;;;;;4.51;52.00;95527.50;6891056;28;20230;-73
2021/03/10 02:44:32;;;;;;;23.33;19.03;;;;;;;4.54;52.17;95524.66;6915571;28;20825;-73
2021/03/10 02:47:55;;;;;;;23.60;19.27;;;;;;;4.57;51.87;95537.66;6898951;28;20215;-73
2021/03/10 02:51:16;;;;;;;22.37;19.97;;;;;;;4.55;52.38;95537.72;6892848;28;20221;-73
2021/03/10 02:54:37;;;;;;;25.77;19.87;;;;;;;4.54;52.51;95543.91;6892160;28;20641;-73
2021/03/10 02:57:58;;;;;;;25.20;21.30;;;;;;;4.54;52.55;95536.03;6894092;28;20969;-73
2021/03/10 03:01:19;;;;;;;23.30;20.27;;;;;;;4.49;52.43;95548.59;6902492;28;20221;-73
2021/03/10 03:04:40;;;;;;;26.67;20.13;;;;;;;4.40;52.74;95559.69;6901447;28;20216;-72
2021/03/10 03:08:02;;;;;;;27.37;21.10;;;;;;;4.38;53.02;95558.91;6916679;28;20244;-73
2021/03/10 03:11:23;;;;;;;23.57;20.70;;;;;;;4.47;53.23;95568.06;6890842;28;20227;-73
2021/03/10 03:14:44;;;;;;;23.07;19.20;;;;;;;4.48;52.51;95562.69;6901764;28;20306;-73
2021/03/10 03:18:05;;;;;;;25.13;21.13;;;;;;;4.46;52.59;95561.97;6906238;28;20228;-73
2021/03/10 03:21:26;;;;;;;30.83;22.33;;;;;;;4.37;53.37;95570.41;6915880;28;20225;-74
2021/03/10 03:24:49;;;;;;;25.53;22.27;;;;;;;4.40;53.25;95585.13;6929122;28;20220;-73
2021/03/10 03:28:15;;;;;;;28.57;22.10;;;;;;;4.36;54.00;95578.38;6910217;28;20216;-74
2021/03/10 03:31:35;;;;;;;27.10;22.23;;;;;;;4.38;53.49;95587.84;6915514;28;20281;-73
2021/03/10 03:34:56;;;;;;;27.87;21.60;;;;;;;4.38;53.69;95577.31;6915505;28;20223;-74
2021/03/10 03:38:17;;;;;;;24.60;19.80;;;;;;;4.33;53.30;95574.13;6922553;28;20305;-73
2021/03/10 03:41:38;;;;;;;25.40;20.60;;;;;;;4.27;53.64;95591.13;6913977;28;20228;-73
2021/03/10 03:44:59;;;;;;;24.07;20.37;;;;;;;4.23;53.91;95580.84;6911640;28;20216;-73
2021/03/10 03:48:19;;;;;;;27.40;21.93;;;;;;;4.20;53.57;95581.06;6917017;28;20219;-73
2021/03/10 03:51:42;;;;;;;27.43;22.40;;;;;;;4.18;53.78;95580.28;6899872;28;20761;-74
2021/03/10 03:55:03;;;;;;;26.80;21.63;;;;;;;4.06;53.99;95591.53;6916661;28;20223;-74
2021/03/10 03:58:23;;;;;;;27.90;22.93;;;;;;;3.92;53.94;95587.06;6897156;28;20255;-74
2021/03/10 04:01:44;;;;;;;29.23;23.43;;;;;;;3.87;54.23;95586.50;6914913;28;20219;-73
2021/03/10 04:05:05;;;;;;;28.93;23.77;;;;;;;3.80;54.54;95591.25;6901075;28;20243;-74
2021/03/10 04:08:25;;;;;;;24.87;22.10;;;;;;;3.68;54.38;95599.81;6899419;28;20299;-74
2021/03/10 04:11:46;;;;;;;30.50;21.83;;;;;;;3.69;54.70;95598.88;6914107;28;20696;-73
2021/03/10 04:15:07;;;;;;;26.23;22.67;;;;;;;3.70;54.75;95599.72;6907049;28;20230;-74
2021/03/10 04:18:28;;;;;;;26.50;21.57;;;;;;;3.64;54.72;95594.81;6908620;28;20247;-73
2021/03/10 04:21:48;;;;;;;25.30;22.17;;;;;;;3.56;54.67;95602.28;6908076;28;20222;-74
2021/03/10 04:25:10;;;;;;;22.37;19.83;;;;;;;3.52;54.53;95595.50;6909425;28;20227;-74
2021/03/10 04:28:30;;;;;;;26.10;21.03;;;;;;;3.43;54.51;95602.09;6904316;28;20740;-74
2021/03/10 04:31:51;;;;;;;29.43;21.73;;;;;;;3.45;55.22;95610.75;6888852;28;20299;-74
2021/03/10 04:35:12;;;;;;;26.93;21.03;;;;;;;3.44;54.69;95612.53;6919842;28;20215;-74
2021/03/10 04:38:35;;;;;;;25.03;20.50;;;;;;;3.44;54.67;95609.06;6893625;28;20736;-74
2021/03/10 04:41:55;;;;;;;23.23;19.93;;;;;;;3.49;55.30;95611.41;6908250;28;20225;-74
2021/03/10 04:45:16;;;;;;;26.23;19.37;;;;;;;3.57;54.89;95612.69;6916685;28;20299;-73
2021/03/10 04:48:36;;;;;;;26.93;20.00;;;;;;;3.62;55.14;95609.81;6902519;28;20591;-74
2021/03/10 04:51:57;;;;;;;24.47;20.00;;;;;;;3.68;55.01;95609.47;6911059;28;20231;-73
2021/03/10 04:55:17;;;;;;;26.50;21.10;;;;;;;3.71;54.90;95620.66;6906011;28;20224;-74
2021/03/10 04:58:37;;;;;;;22.70;18.90;;;;;;;3.66;55.13;95620.06;6884873;28;20987;-74
2021/03/10 05:01:58;;;;;;;25.67;20.50;;;;;;;3.57;55.28;95620.56;6911199;28;20243;-74
2021/03/10 05:05:18;;;;;;;25.57;19.27;;;;;;;3.53;55.20;95613.78;6919845;28;20225;-72
2021/03/10 05:08:38;;;;;;;23.47;19.37;;;;;;;3.40;54.79;95618.03;6909377;28;20222;-72
2021/03/10 05:11:59;;;;;;;24.03;19.07;;;;;;;3.35;55.57;95618.28;6910377;28;20252;-74
2021/03/10 05:15:19;;;;;;;23.73;18.43;;;;;;;3.30;55.24;95625.56;6901300;28;20218;-73
2021/03/10 05:18:40;;;;;;;23.63;17.63;;;;;;;3.27;55.70;95627.53;6897838;28;20240;-73
2021/03/10 05:22:00;;;;;;;23.10;17.53;;;;;;;3.21;55.49;95626.06;6901859;28;20673;-74
2021/03/10 05:25:21;;;;;;;24.57;18.97;;;;;;;3.23;55.59;95629.44;6902671;28;20285;-74
2021/03/10 05:28:41;;;;;;;24.70;20.37;;;;;;;3.19;55.75;95625.28;6920627;28;20226;-73
2021/03/10 05:32:04;;;;;;;24.90;20.97;;;;;;;3.16;56.08;95624.63;6890325;28;20727;-74
2021/03/10 05:35:25;;;;;;;24.50;20.50;;;;;;;3.26;56.43;95624.03;6898756;28;20232;-74
2021/03/10 05:38:48;;;;;;;31.73;24.70;;;;;;;3.25;56.33;95634.63;6904336;28;20221;-74
2021/03/10 05:42:08;;;;;;;27.03;22.97;;;;;;;3.20;56.58;95627.00;6888630;28;20232;-73
2021/03/10 05:45:29;;;;;;;25.77;21.53;;;;;;;3.15;56.33;95642.16;6890125;28;20214;-73
2021/03/10 05:48:50;;;;;;;27.33;21.97;;;;;;;3.15;56.45;95650.00;6870525;28;20285;-72
2021/03/10 05:52:11;;;;;;;25.33;21.60;;;;;;;3.16;57.08;95650.88;6882089;28;20238;-72
2021/03/10 05:55:33;;;;;;;25.60;22.00;;;;;;;3.25;56.83;95653.00;6862675;28;20229;-73
2021/03/10 05:59:01;;;;;;;27.10;22.17;;;;;;;3.24;56.78;95654.75;6879864;28;20727;-73
2021/03/10 06:02:22;;;;;;;25.00;21.33;;;;;;;3.21;57.09;95661.97;6879548;28;20243;-75
2021/03/10 06:05:43;;;;;;;26.27;22.20;;;;;;;3.14;57.18;95661.44;6884510;28;20251;-74
2021/03/10 06:09:15;;;;;;;27.17;21.93;;;;;;;3.17;56.94;95657.81;6896836;28;20218;-73
2021/03/10 06:12:45;;;;;;;27.83;22.60;;;;;;;3.26;57.17;95668.66;6877316;28;20305;-73
2021/03/10 06:16:05;;;;;;;28.93;24.10;;;;;;;3.38;57.33;95665.34;6887226;28;20223;-74
2021/03/10 06:19:26;;;;;;;27.80;21.63;;;;;;;3.57;57.01;95669.63;6894307;28;20243;-73
2021/03/10 06:22:46;;;;;;;29.13;23.67;;;;;;;3.72;56.78;95661.72;6857289;28;20258;-74
2021/03/10 06:26:17;;;;;;;27.87;23.23;;;;;;;3.88;56.50;95665.19;6890063;28;20601;-76
2021/03/10 06:29:37;;;;;;;25.73;21.73;;;;;;;4.08;55.82;95664.06;6912742;28;20219;-74
2021/03/10 06:32:58;;;;;;;25.47;20.30;;;;;;;4.27;55.87;95656.84;6892212;28;20336;-75
2021/03/10 06:36:27;;;;;;;23.70;18.50;;;;;;;4.43;55.49;95661.19;6904764;28;20244;-75
2021/03/10 06:39:48;;;;;;;23.70;18.33;;;;;;;4.58;55.34;95663.78;6853227;28;20280;-75
2021/03/10 06:43:08;;;;;;;22.63;17.77;;;;;;;4.74;55.16;95674.25;6890085;28;20228;-75
2021/03/10 06:46:29;;;;;;;23.97;19.13;;;;;;;4.86;54.45;95665.63;6907022;28;20232;-74
2021/03/10 06:49:54;;;;;;;26.50;18.07;;;;;;;4.96;54.42;95677.28;6915083;28;20255;-75
2021/03/10 06:53:15;;;;;;;21.90;16.83;;;;;;;5.15;54.08;95666.50;6890048;28;20223;-74
2021/03/10 06:56:36;;;;;;;19.83;16.30;;;;;;;5.36;53.78;95666.97;6897151;28;20219;-75
2021/03/10 06:59:57;;;;;;;19.50;16.07;;;;;;;5.53;53.61;95666.78;6909973;28;20225;-73
2021/03/10 07:03:17;;;;;;;18.30;15.60;;;;;;;5.73;53.21;95663.75;6888525;28;20233;-74
2021/03/10 07:06:39;;;;;;;19.50;15.87;;;;;;;5.95;52.51;95658.81;6881296;28;20215;-74
2021/03/10 07:10:02;;;;;;;21.60;16.37;;;;;;;6.22;52.16;95660.63;6883340;28;20248;-75
2021/03/10 07:13:25;;;;;;;18.83;16.07;;;;;;;6.37;51.81;95665.72;6878933;28;20225;-76
2021/03/10 07:16:46;;;;;;;20.77;16.40;;;;;;;6.41;51.21;95675.13;6877843;28;20221;-75
2021/03/10 07:20:10;;;;;;;20.67;17.87;;;;;;;6.44;51.20;95674.06;6893364;28;20236;-76
2021/03/10 07:23:34;;;;;;;21.50;17.67;;;;;;;6.55;50.69;95673.34;6884744;28;20290;-75
2021/03/10 07:26:55;;;;;;;21.70;18.53;;;;;;;6.63;50.67;95681.63;6883485;28;20286;-76
2021/03/10 07:30:15;;;;;;;24.93;17.37;;;;;;;6.92;50.95;95674.41;6891306;28;20226;-75
2021/03/10 07:33:36;;;;;;;24.33;20.63;;;;;;;7.37;50.41;95676.53;6863676;28;20238;-76
2021/03/10 07:36:56;;;;;;;23.13;19.70;;;;;;;7.80;49.50;95673.47;6885353;28;20226;-73
2021/03/10 07:40:17;;;;;;;20.93;18.73;;;;;;;8.22;48.86;95682.78;6885952;28;20255;-76
2021/03/10 07:43:40;;;;;;;25.90;19.30;;;;;;;8.61;48.46;95685.19;6868861;28;20306;-76
2021/03/10 07:47:06;;;;;;;25.90;18.97;;;;;;;8.82;47.10;95696.84;6892364;28;20217;-75
2021/03/10 07:50:41;;;;;;;22.23;19.60;;;;;;;8.94;46.34;95703.88;6898609;28;20237;-74
2021/03/10 07:54:17;;;;;;;21.80;18.57;;;;;;;9.23;46.27;95709.59;6879197;28;20678;-75
2021/03/10 07:57:48;;;;;;;21.87;18.93;;;;;;;9.57;45.92;95709.66;6878739;28;20271;-75
2021/03/10 08:01:15;;;;;;;45.67;33.63;;;;;;;9.81;45.28;95713.88;6882296;28;20690;-75
2021/03/10 08:04:38;;;;;;;28.20;20.23;;;;;;;10.13;44.82;95711.34;6893023;28;20220;-75
2021/03/10 08:08:14;;;;;;;21.33;18.03;;;;;;;10.40;44.33;95712.78;6882489;28;20298;-74
2021/03/10 08:11:36;;;;;;;20.50;18.30;;;;;;;10.66;44.01;95706.22;6894437;28;20223;-76
2021/03/10 08:14:58;;;;;;;21.03;18.77;;;;;;;10.93;43.32;95717.22;6878654;28;20748;-75
2021/03/10 08:18:19;;;;;;;23.87;19.07;;;;;;;11.23;43.23;95718.28;6896738;28;20232;-76
2021/03/10 08:21:46;;;;;;;20.07;17.97;;;;;;;11.37;42.75;95716.13;6909233;28;20221;-75
2021/03/10 08:25:12;;;;;;;23.67;19.13;;;;;;;11.50;42.51;95719.47;6884804;28;20219;-76
2021/03/10 08:28:37;;;;;;;24.37;19.53;;;;;;;11.71;41.99;95730.09;6906398;28;20286;-75
2021/03/10 08:31:58;;;;;;;19.27;17.30;;;;;;;11.87;41.35;95727.81;6918558;28;20224;-75
2021/03/10 08:35:23;;;;;;;24.63;19.80;;;;;;;12.10;41.02;95720.50;6918098;28;20756;-75
2021/03/10 08:38:44;;;;;;;21.23;18.83;;;;;;;12.30;40.26;95714.28;6887690;28;20729;-75
2021/03/10 08:42:05;;;;;;;20.70;18.57;;;;;;;12.62;40.25;95715.91;6896526;28;20217;-74
2021/03/10 08:45:27;;;;;;;24.47;19.73;;;;;;;12.82;39.68;95720.28;6889014;28;20274;-75
2021/03/10 08:48:48;;;;;;;20.80;18.50;;;;;;;13.09;38.90;95725.75;6896310;28;20215;-75
2021/03/10 08:52:13;;;;;;;20.33;18.13;;;;;;;13.38;38.43;95719.63;6891243;28;20232;-76
2021/03/10 08:55:34;;;;;;;22.37;19.87;;;;;;;13.78;37.86;95720.25;6931784;28;20343;-75
2021/03/10 08:58:54;;;;;;;22.70;19.60;;;;;;;14.32;37.37;95702.63;6897894;28;20213;-74
2021/03/10 09:02:24;;;;;;;21.17;18.97;;;;;;;14.80;36.67;95705.88;6898650;28;20299;-74
2021/03/10 09:05:46;;;;;;;21.60;18.57;;;;;;;15.22;35.68;95711.50;6876282;28;20850;-74
2021/03/10 09:09:06;;;;;;;21.30;19.00;;;;;;;15.46;34.81;95706.34;6878462;28;20209;-73
2021/03/10 09:12:28;;;;;;;21.40;18.27;;;;;;;15.66;34.21;95708.88;6871685;28;20304;-74
2021/03/10 09:15:48;;;;;;;22.03;19.80;;;;;;;15.89;34.25;95710.06;6898897;28;20204;-76
2021/03/10 09:19:09;;;;;;;23.73;21.23;;;;;;;16.07;33.78;95705.47;6891652;28;20232;-75
2021/03/10 09:22:30;;;;;;;21.53;18.87;;;;;;;16.27;33.18;95696.22;6877022;28;20216;-73
2021/03/10 09:25:56;;;;;;;21.77;19.47;;;;;;;16.66;31.98;95690.34;6897297;28;20212;-73
2021/03/10 09:29:17;;;;;;;24.87;19.77;;;;;;;16.73;32.15;95689.56;6879869;28;20219;-74
2021/03/10 09:32:39;;;;;;;21.67;19.37;;;;;;;16.88;32.22;95688.91;6876606;28;20228;-75
2021/03/10 09:36:01;;;;;;;21.73;19.47;;;;;;;17.23;31.78;95682.44;6895638;28;20229;-74
2021/03/10 09:39:22;;;;;;;20.63;18.63;;;;;;;17.41;31.32;95677.75;6881644;28;20239;-75
2021/03/10 09:42:46;;;;;;;22.40;20.00;;;;;;;17.64;30.75;95683.31;6896336;28;20228;-75
2021/03/10 09:46:08;;;;;;;20.43;18.43;;;;;;;17.96;30.57;95670.66;6892978;28;20972;-76
2021/03/10 09:49:28;;;;;;;21.63;19.50;;;;;;;17.74;30.27;95676.75;6903904;28;20219;-74
2021/03/10 09:52:49;;;;;;;22.20;19.97;;;;;;;17.43;30.77;95679.25;6894809;28;20211;-74
2021/03/10 09:56:15;;;;;;;22.20;19.90;;;;;;;17.30;30.63;95673.53;6891595;28;20232;-75
2021/03/10 09:59:36;;;;;;;23.23;20.80;;;;;;;17.35;30.93;95668.50;6905378;28;20257;-74
2021/03/10 10:02:59;;;;;;;23.33;21.13;;;;;;;17.45;30.78;95647.69;6912021;28;20251;-74
2021/03/10 10:06:20;;;;;;;23.17;20.77;;;;;;;17.75;30.73;95646.22;6892488;28;20233;-74
2021/03/10 10:09:40;;;;;;;23.97;21.43;;;;;;;18.42;30.25;95644.81;6921051;28;20256;-74
2021/03/10 10:13:02;;;;;;;21.43;19.33;;;;;;;19.11;29.23;95637.72;6915366;28;20235;-74
2021/03/10 10:16:22;;;;;;;22.70;20.23;;;;;;;19.39;28.82;95635.34;6892342;28;20221;-74
2021/03/10 10:19:48;;;;;;;22.57;20.40;;;;;;;19.75;28.69;95634.72;6907918;28;20705;-74
2021/03/10 10:23:08;;;;;;;22.57;20.43;;;;;;;20.34;28.49;95627.53;6893056;28;20232;-74
2021/03/10 10:26:28;;;;;;;23.20;20.93;;;;;;;20.91;27.46;95633.03;6906094;28;20228;-74
2021/03/10 10:29:49;;;;;;;22.47;20.27;;;;;;;21.13;26.01;95621.22;6894073;28;20711;-74
2021/03/10 10:33:09;;;;;;;22.07;19.93;;;;;;;20.76;26.24;95627.66;6902893;28;20216;-75
2021/03/10 10:36:29;;;;;;;21.40;19.27;;;;;;;20.95;26.37;95620.81;6918097;28;20933;-74
2021/03/10 10:39:52;;;;;;;21.57;19.57;;;;;;;22.02;25.98;95619.78;6924595;28;20224;-74
2021/03/10 10:43:15;;;;;;;21.08;19.08;;;;;;;23.10;25.10;95619.06;6899944;28;20238;-75
2021/03/10 10:46:35;;;;;;;21.42;19.25;;;;;;;24.17;24.06;95611.66;6916666;28;20211;-74
2021/03/10 10:49:56;;;;;;;20.35;18.55;;;;;;;25.18;22.58;95606.50;6915137;28;20298;-76
2021/03/10 10:53:16;;;;;;;19.45;17.55;;;;;;;26.11;21.32;95587.59;6907557;28;20759;-74
2021/03/10 10:56:39;;;;;;;18.27;16.67;;;;;;;26.40;20.28;95593.22;6910853;28;20215;-73
2021/03/10 10:59:59;;;;;;;18.02;16.35;;;;;;;26.42;20.06;95584.81;6916691;28;20220;-74
2021/03/10 11:03:20;;;;;;;13.82;12.52;;;;;;;26.39;19.43;95579.81;6905377;28;20363;-75
2021/03/10 11:06:40;;;;;;;14.18;12.88;;;;;;;26.52;19.11;95570.66;6913383;28;20212;-73
2021/03/10 11:10:01;;;;;;;11.65;10.65;;;;;;;26.66;17.95;95564.81;6906333;28;20266;-74
2021/03/10 11:13:21;;;;;;;11.95;10.95;;;;;;;25.50;18.25;95561.94;6897046;28;20225;-74
2021/03/10 11:16:41;;;;;;;11.00;10.00;;;;;;;25.15;19.23;95567.00;6898177;28;20689;-74
2021/03/10 11:20:06;;;;;;;10.18;9.18;;;;;;;24.94;18.86;95569.25;6924747;28;20251;-74
2021/03/10 11:23:26;;;;;;;8.27;7.65;;;;;;;24.57;19.00;95562.69;6913831;28;20233;-73
2021/03/10 11:26:48;;;;;;;7.85;7.15;;;;;;;24.05;18.37;95555.50;6905206;28;20222;-74
2021/03/10 11:30:12;;;;;;;8.20;7.50;;;;;;;22.68;18.86;95555.16;6926428;28;20304;-72
2021/03/10 11:33:34;;;;;;;10.18;9.25;;;;;;;21.18;20.26;95555.84;6900207;28;20775;-73
2021/03/10 11:36:57;;;;;;;8.07;7.27;;;;;;;19.93;21.56;95554.34;6909593;28;20213;-74
2021/03/10 11:40:18;;;;;;;7.27;6.57;;;;;;;19.53;22.07;95561.84;6891216;28;20221;-73
2021/03/10 11:43:38;;;;;;;6.50;5.90;;;;;;;19.46;22.46;95549.31;6900273;28;20231;-73
2021/03/10 11:46:59;;;;;;;8.20;7.43;;;;;;;19.29;22.98;95567.44;6918134;28;20225;-73
2021/03/10 11:50:19;;;;;;;7.73;7.00;;;;;;;18.92;23.17;95552.09;6919155;28;20233;-74
2021/03/10 11:53:39;;;;;;;8.33;7.40;;;;;;;18.55;23.63;95560.09;6903115;28;20265;-72
2021/03/10 11:57:02;;;;;;;10.10;8.47;;;;;;;18.41;24.54;95557.09;6908746;28;20228;-74
2021/03/10 12:00:23;;;;;;;8.13;7.37;;;;;;;18.17;23.89;95556.38;6883467;28;20232;-72
2021/03/10 12:03:45;;;;;;;7.47;6.77;;;;;;;17.88;24.41;95557.00;6928087;28;20329;-73
2021/03/10 12:07:06;;;;;;;8.33;7.47;;;;;;;17.27;24.32;95554.94;6895984;28;20233;-73
2021/03/10 12:10:26;;;;;;;8.00;7.30;;;;;;;16.58;25.25;95548.22;6908320;28;20678;-73
2021/03/10 12:13:46;;;;;;;7.63;6.83;;;;;;;16.13;25.55;95551.28;6911559;28;20239;-73
2021/03/10 12:17:07;;;;;;;9.07;7.43;;;;;;;15.74;26.67;95546.44;6902434;28;20291;-73
2021/03/10 12:20:27;;;;;;;8.23;7.43;;;;;;;15.47;27.44;95543.94;6918519;28;20246;-73
2021/03/10 12:23:51;;;;;;;10.70;7.80;;;;;;;15.07;27.64;95541.84;6901365;28;20277;-74
2021/03/10 12:27:23;;;;;;;7.87;6.93;;;;;;;14.93;28.47;95524.53;6914860;28;20231;-73
2021/03/10 12:30:43;;;;;;;8.17;7.27;;;;;;;14.86;28.53;95517.28;6896172;28;20219;-74
2021/03/10 12:34:06;;;;;;;7.57;6.87;;;;;;;14.70;28.24;95514.47;6909368;28;20304;-75
2021/03/10 12:37:26;;;;;;;7.53;6.80;;;;;;;14.50;28.88;95506.63;6907798;28;20225;-73
2021/03/10 12:40:46;;;;;;;8.03;7.23;;;;;;;14.35;28.89;95504.63;6909024;28;20247;-73
2021/03/10 12:44:09;;;;;;;8.10;7.30;;;;;;;14.19;29.42;95502.63;6913769;28;20252;-74
2021/03/10 12:47:32;;;;;;;9.30;8.10;;;;;;;13.97;29.65;95498.59;6919084;28;20718;-75
2021/03/10 12:50:53;;;;;;;9.33;8.33;;;;;;;13.63;30.29;95489.53;6911933;28;20226;-73
2021/03/10 12:54:13;;;;;;;7.97;7.27;;;;;;;13.73;30.52;95490.31;6897609;28;20208;-73
2021/03/10 12:57:34;;;;;;;8.60;7.70;;;;;;;13.72;30.56;95486.81;6907522;28;20599;-73
2021/03/10 13:00:54;;;;;;;7.97;7.17;;;;;;;13.69;30.42;95475.56;6909430;28;20385;-74
2021/03/10 13:04:15;;;;;;;8.17;7.03;;;;;;;13.61;30.44;95471.00;6913931;28;20793;-73
2021/03/10 13:07:35;;;;;;;8.50;7.70;;;;;;;13.39;30.26;95466.06;6886823;28;20204;-74
2021/03/10 13:10:56;;;;;;;9.30;8.00;;;;;;;13.25;30.59;95482.53;6904871;28;20224;-73
2021/03/10 13:14:19;;;;;;;8.83;7.93;;;;;;;13.03;30.77;95469.53;6890732;28;20718;-72
2021/03/10 13:17:40;;;;;;;9.63;8.03;;;;;;;12.84;31.35;95475.78;6913716;28;20268;-74
2021/03/10 13:21:00;;;;;;;9.13;8.20;;;;;;;12.84;31.83;95465.13;6899339;28;20212;-73
2021/03/10 13:24:20;;;;;;;9.73;8.73;;;;;;;12.89;31.57;95460.19;6881204;28;20220;-72
2021/03/10 13:27:45;;;;;;;10.93;9.10;;;;;;;13.09;32.45;95467.13;6911382;28;20570;-73
2021/03/10 13:31:06;;;;;;;9.40;8.50;;;;;;;13.25;31.62;95459.38;6903946;28;20978;-73
2021/03/10 13:34:26;;;;;;;10.80;9.30;;;;;;;13.33;31.60;95446.16;6913181;28;20225;-72
2021/03/10 13:37:46;;;;;;;10.73;8.60;;;;;;;13.39;31.56;95446.53;6910085;28;20269;-72
2021/03/10 13:41:09;;;;;;;12.13;9.33;;;;;;;13.39;31.89;95449.19;6877455;28;20594;-72
2021/03/10 13:44:29;;;;;;;10.90;9.03;;;;;;;13.30;31.31;95442.94;6896402;28;20232;-74
2021/03/10 13:47:50;;;;;;;10.87;9.77;;;;;;;13.14;31.42;95440.91;6900678;28;20302;-74
2021/03/10 13:51:10;;;;;;;10.80;9.70;;;;;;;13.09;31.55;95444.97;6901872;28;20274;-74
2021/03/10 13:54:31;;;;;;;11.47;9.87;;;;;;;13.04;31.74;95444.56;6902313;28;20463;-74
2021/03/10 13:57:54;;;;;;;11.43;9.73;;;;;;;12.90;31.65;95441.41;6902943;28;20216;-72
2021/03/10 14:01:14;;;;;;;11.53;10.13;;;;;;;12.82;31.62;95453.78;6901611;28;20228;-73
2021/03/10 14:04:38;;;;;;;11.17;10.07;;;;;;;12.84;31.69;95439.31;6905306;28;20326;-74
2021/03/10 14:07:58;;;;;;;11.10;9.93;;;;;;;12.88;31.87;95424.69;6906117;28;20234;-72
2021/03/10 14:11:21;;;;;;;11.47;9.90;;;;;;;13.05;32.26;95408.94;6890505;28;20228;-74
2021/03/10 14:14:43;;;;;;;12.67;9.43;;;;;;;13.23;31.62;95410.69;6910107;28;20228;-73
2021/03/10 14:18:04;;;;;;;11.50;10.23;;;;;;;13.26;31.61;95399.75;6909944;28;20219;-74
2021/03/10 14:21:24;;;;;;;11.33;10.13;;;;;;;13.29;31.53;95393.25;6904113;28;20236;-73
2021/03/10 14:24:45;;;;;;;11.33;9.57;;;;;;;13.31;31.32;95399.28;6917982;28;20211;-72
2021/03/10 14:28:08;;;;;;;11.93;9.93;;;;;;;13.32;31.40;95390.31;6893314;28;20217;-74
2021/03/10 14:31:31;;;;;;;11.27;10.17;;;;;;;13.37;31.22;95382.69;6918137;28;20619;-74
2021/03/10 14:34:51;;;;;;;10.67;9.40;;;;;;;13.20;30.99;95378.16;6899918;28;20251;-73
2021/03/10 14:38:14;;;;;;;11.73;10.07;;;;;;;12.91;31.60;95386.28;6913512;28;20602;-72
2021/03/10 14:41:35;;;;;;;11.17;10.07;;;;;;;12.78;31.49;95389.25;6908976;28;20230;-73
2021/03/10 14:44:55;;;;;;;12.17;10.57;;;;;;;12.67;31.89;95389.47;6899420;28;20220;-73
2021/03/10 14:48:15;;;;;;;11.30;10.10;;;;;;;12.71;32.27;95374.00;6923448;28;20956;-74
2021/03/10 14:51:38;;;;;;;11.40;10.10;;;;;;;12.77;32.09;95376.09;6902585;28;20302;-73
2021/03/10 14:54:58;;;;;;;11.47;10.27;;;;;;;12.78;31.70;95362.59;6902816;28;20227;-72
2021/03/10 14:58:19;;;;;;;12.73;9.90;;;;;;;12.88;31.75;95355.41;6896357;28;20216;-73
2021/03/10 15:01:39;;;;;;;10.43;9.37;;;;;;;12.93;32.23;95351.47;6893671;28;20229;-74
2021/03/10 15:05:00;;;;;;;10.73;9.57;;;;;;;12.98;32.45;95343.84;6889795;28;20270;-73
2021/03/10 15:08:20;;;;;;;12.03;10.53;;;;;;;12.95;32.20;95344.16;6906063;28;20240;-74
2021/03/10 15:11:41;;;;;;;12.20;9.73;;;;;;;13.02;32.42;95354.09;6892766;28;20732;-74
2021/03/10 15:15:01;;;;;;;10.80;9.70;;;;;;;13.18;32.45;95356.97;6895041;28;20281;-74
2021/03/10 15:18:21;;;;;;;11.80;10.57;;;;;;;13.31;31.99;95348.63;6902203;28;20235;-73
2021/03/10 15:21:42;;;;;;;11.37;10.20;;;;;;;13.40;31.52;95338.84;6917702;28;20720;-73
2021/03/10 15:25:07;;;;;;;10.47;9.37;;;;;;;13.45;31.36;95341.91;6911440;28;20710;-73
2021/03/10 15:28:27;;;;;;;11.33;10.20;;;;;;;13.37;31.15;95333.84;6892377;28;20221;-73
2021/03/10 15:31:48;;;;;;;11.23;9.83;;;;;;;13.24;31.27;95324.38;6870542;28;20228;-72
2021/03/10 15:35:10;;;;;;;11.23;9.57;;;;;;;13.30;31.41;95325.59;6893061;28;20213;-72
2021/03/10 15:38:30;;;;;;;10.83;9.60;;;;;;;13.40;31.48;95326.38;6894401;28;20216;-73